createdAt,value
2023-01-08T00:00:20.861Z,100803.97
2023-01-08T00:04:42.705Z,100801.09
2023-01-08T00:08:45.226Z,100791.91
2023-01-08T00:12:46.870Z,100785.09
2023-01-08T00:16:48.833Z,100783.91
2023-01-08T00:20:50.838Z,100790.91
2023-01-08T00:24:52.586Z,100789.28
2023-01-08T00:28:54.559Z,100790.72
2023-01-08T00:32:56.212Z,100792.81
2023-01-08T00:36:59.232Z,100784.84
2023-01-08T00:41:00.972Z,100782.38
2023-01-08T00:45:03.031Z,100780.06
2023-01-08T00:49:04.978Z,100774.00
2023-01-08T00:53:06.899Z,100782.22
2023-01-08T00:57:08.727Z,100776.91
2023-01-08T01:01:13.153Z,100762.41
2023-01-08T01:05:16.919Z,100766.84
2023-01-08T01:09:18.855Z,100758.56
2023-01-08T01:13:20.569Z,100756.19
2023-01-08T01:17:22.603Z,100743.84
2023-01-08T01:21:27.675Z,100744.41
2023-01-08T01:25:29.389Z,100737.59
2023-01-08T01:29:31.473Z,100743.66
2023-01-08T01:33:33.301Z,100737.63
2023-01-08T01:37:35.252Z,100742.41
2023-01-08T01:41:42.961Z,100741.59
2023-01-08T01:45:44.986Z,100736.41
2023-01-08T01:49:55.570Z,100730.22
2023-01-08T01:53:58.151Z,100725.72
2023-01-08T01:58:21.343Z,100721.56
2023-01-08T02:02:23.508Z,100713.69
2023-01-08T02:06:39.037Z,100706.06
2023-01-08T02:11:09.039Z,100700.97
2023-01-08T02:15:15.316Z,100689.59
2023-01-08T02:19:34.292Z,100682.25
2023-01-08T02:24:02.455Z,100681.59
2023-01-08T02:28:14.114Z,100673.44
2023-01-08T02:32:16.397Z,100674.84
2023-01-08T02:36:28.151Z,100675.00
2023-01-08T02:40:35.554Z,100672.31
2023-01-08T02:44:45.729Z,100676.06
2023-01-08T02:49:01.499Z,100674.38
2023-01-08T02:53:11.671Z,100668.00
2023-01-08T02:57:17.066Z,100667.19
2023-01-08T03:01:21.937Z,100677.63
2023-01-08T03:05:26.503Z,100671.84
2023-01-08T03:09:29.110Z,100660.84
2023-01-08T03:13:40.133Z,100657.66
2023-01-08T03:17:46.667Z,100663.66
2023-01-08T03:21:51.563Z,100658.47
2023-01-08T03:25:53.272Z,100661.66
2023-01-08T03:29:58.670Z,100660.81
2023-01-08T03:34:02.834Z,100662.44
2023-01-08T03:38:11.773Z,100652.63
2023-01-08T03:42:16.587Z,100652.81
2023-01-08T03:46:31.562Z,100640.59
2023-01-08T03:50:34.165Z,100636.94
2023-01-08T03:54:36.961Z,100634.13
2023-01-08T03:58:39.000Z,100624.53
2023-01-08T04:02:42.220Z,100634.84
2023-01-08T04:06:44.389Z,100633.75
2023-01-08T04:10:46.080Z,100629.66
2023-01-08T04:14:48.072Z,100620.84
2023-01-08T04:18:50.150Z,100625.47
2023-01-08T04:22:52.378Z,100631.59
2023-01-08T04:26:54.018Z,100619.16
2023-01-08T04:30:56.217Z,100608.75
2023-01-08T04:34:57.883Z,100605.44
2023-01-08T04:38:59.835Z,100600.81
2023-01-08T04:43:01.579Z,100604.34
2023-01-08T04:47:03.503Z,100593.41
2023-01-08T04:51:05.477Z,100582.59
2023-01-08T04:55:07.763Z,100599.16
2023-01-08T04:59:09.722Z,100603.47
2023-01-08T05:03:11.532Z,100599.16
2023-01-08T05:07:13.632Z,100585.72
2023-01-08T05:11:15.410Z,100592.19
2023-01-08T05:15:17.712Z,100599.88
2023-01-08T05:19:19.479Z,100591.91
2023-01-08T05:23:21.401Z,100586.00
2023-01-08T05:27:23.077Z,100580.91
2023-01-08T05:31:25.154Z,100580.03
2023-01-08T05:35:26.805Z,100576.25
2023-01-08T05:39:28.719Z,100578.09
2023-01-08T05:43:31.457Z,100574.13
2023-01-08T05:47:34.611Z,100579.44
2023-01-08T05:51:36.377Z,100579.88
2023-01-08T05:55:38.335Z,100570.41
2023-01-08T05:59:39.983Z,100570.53
2023-01-08T06:03:42.175Z,100561.31
2023-01-08T06:07:43.932Z,100579.78
2023-01-08T06:11:46.292Z,100580.03
2023-01-08T06:15:48.130Z,100579.44
2023-01-08T06:19:50.076Z,100574.59
2023-01-08T06:23:52.001Z,100566.22
2023-01-08T06:27:53.692Z,100564.06
2023-01-08T06:31:56.299Z,100565.16
2023-01-08T06:36:02.573Z,100565.22
2023-01-08T06:40:04.926Z,100552.03
2023-01-08T06:44:06.865Z,100562.03
2023-01-08T06:48:08.876Z,100555.34
2023-01-08T06:52:10.894Z,100550.84
2023-01-08T06:56:13.533Z,100545.41
2023-01-08T07:00:17.024Z,100535.56
2023-01-08T07:04:19.452Z,100551.66
2023-01-08T07:08:21.565Z,100530.97
2023-01-08T07:12:24.615Z,100528.31
2023-01-08T07:16:26.670Z,100528.94
2023-01-08T07:20:28.671Z,100535.41
2023-01-08T07:24:30.485Z,100537.56
2023-01-08T07:28:32.402Z,100525.53
2023-01-08T07:32:34.161Z,100522.53
2023-01-08T07:36:36.168Z,100517.50
2023-01-08T07:40:39.495Z,100511.09
2023-01-08T07:44:41.307Z,100512.69
2023-01-08T07:48:43.465Z,100507.41
2023-01-08T07:52:45.415Z,100491.81
2023-01-08T07:56:47.102Z,100496.00
2023-01-08T08:00:49.022Z,100493.41
2023-01-08T08:04:50.733Z,100492.63
2023-01-08T08:08:52.724Z,100501.75
2023-01-08T08:12:54.629Z,100493.94
2023-01-08T08:16:56.341Z,100487.25
2023-01-08T08:20:58.410Z,100485.38
2023-01-08T08:25:00.047Z,100490.66
2023-01-08T08:29:02.190Z,100489.81
2023-01-08T08:33:06.287Z,100495.78
2023-01-08T08:37:08.957Z,100501.63
2023-01-08T08:41:10.977Z,100488.06
2023-01-08T08:45:13.237Z,100488.03
2023-01-08T08:49:14.895Z,100481.75
2023-01-08T08:53:16.836Z,100480.44
2023-01-08T08:57:18.879Z,100472.97
2023-01-08T09:01:20.604Z,100469.66
2023-01-08T09:05:22.636Z,100463.78
2023-01-08T09:09:24.365Z,100463.91
2023-01-08T09:13:26.365Z,100456.19
2023-01-08T09:17:28.076Z,100456.25
2023-01-08T09:21:30.081Z,100473.31
2023-01-08T09:25:31.786Z,100465.84
2023-01-08T09:29:33.711Z,100466.13
2023-01-08T09:33:35.492Z,100459.03
2023-01-08T09:37:37.395Z,100441.03
2023-01-08T09:41:43.133Z,100435.88
2023-01-08T09:45:49.329Z,100446.28
2023-01-08T09:49:55.234Z,100458.72
2023-01-08T09:53:57.691Z,100459.03
2023-01-08T09:58:03.037Z,100441.72
2023-01-08T10:02:13.827Z,100443.88
2023-01-08T10:06:17.116Z,100453.22
2023-01-08T10:10:22.431Z,100459.13
2023-01-08T10:14:29.076Z,100449.13
2023-01-08T10:18:32.885Z,100455.84
2023-01-08T10:22:34.812Z,100448.13
2023-01-08T10:26:38.702Z,100443.25
2023-01-08T10:30:40.721Z,100442.09
2023-01-08T10:34:49.159Z,100438.41
2023-01-08T10:38:56.219Z,100438.41
2023-01-08T10:43:07.951Z,100437.16
2023-01-08T10:47:18.357Z,100438.78
2023-01-08T10:51:23.772Z,100422.84
2023-01-08T10:55:25.638Z,100419.88
2023-01-08T10:59:27.741Z,100399.81
2023-01-08T11:03:32.391Z,100404.09
2023-01-08T11:07:37.485Z,100394.03
2023-01-08T11:11:39.558Z,100384.66
2023-01-08T11:15:41.991Z,100383.59
2023-01-08T11:19:44.043Z,100390.19
2023-01-08T11:23:46.277Z,100398.59
2023-01-08T11:27:50.809Z,100395.06
2023-01-08T11:32:09.876Z,100385.19
2023-01-08T11:36:23.249Z,100379.38
2023-01-08T11:40:30.997Z,100372.34
2023-01-08T11:44:58.848Z,100363.91
2023-01-08T11:49:12.863Z,100368.56
2023-01-08T11:53:26.982Z,100360.22
2023-01-08T11:57:46.874Z,100370.91
2023-01-08T12:02:20.081Z,100361.25
2023-01-08T12:06:43.292Z,100354.84
2023-01-08T12:11:04.344Z,100359.44
2023-01-08T12:15:20.997Z,100354.53
2023-01-08T12:19:38.610Z,100348.84
2023-01-08T12:24:01.782Z,100357.00
2023-01-08T12:28:31.536Z,100336.22
2023-01-08T12:32:42.108Z,100331.81
2023-01-08T12:36:49.927Z,100339.66
2023-01-08T12:41:01.620Z,100329.69
2023-01-08T12:45:07.955Z,100338.81
2023-01-08T12:49:14.707Z,100335.47
2023-01-08T12:53:48.156Z,100329.53
2023-01-08T12:58:30.529Z,100314.31
2023-01-08T13:02:47.311Z,100311.28
2023-01-08T13:06:51.727Z,100317.22
2023-01-08T13:10:55.120Z,100295.47
2023-01-08T13:14:57.531Z,100287.31
2023-01-08T13:19:04.522Z,100292.84
2023-01-08T13:23:06.863Z,100302.72
2023-01-08T13:27:14.718Z,100281.75
2023-01-08T13:31:24.480Z,100277.44
2023-01-08T13:35:30.155Z,100259.13
2023-01-08T13:39:38.936Z,100269.75
2023-01-08T13:43:41.983Z,100259.34
2023-01-08T13:47:46.292Z,100251.78
2023-01-08T13:51:48.540Z,100252.94
2023-01-08T13:55:57.553Z,100242.72
2023-01-08T14:00:00.134Z,100233.22
2023-01-08T14:04:02.331Z,100230.03
2023-01-08T14:08:04.086Z,100230.91
2023-01-08T14:12:06.385Z,100233.63
2023-01-08T14:16:13.334Z,100235.13
2023-01-08T14:20:28.873Z,100238.28
2023-01-08T14:24:31.279Z,100238.84
2023-01-08T14:28:33.274Z,100246.34
2023-01-08T14:32:34.988Z,100239.72
2023-01-08T14:36:37.020Z,100228.47
2023-01-08T14:40:42.611Z,100229.25
2023-01-08T14:44:46.089Z,100220.56
2023-01-08T14:48:48.948Z,100222.59
2023-01-08T14:52:52.989Z,100220.69
2023-01-08T14:56:59.067Z,100228.50
2023-01-08T15:01:05.529Z,100223.47
2023-01-08T15:05:20.051Z,100218.22
2023-01-08T15:09:23.607Z,100217.25
2023-01-08T15:13:30.981Z,100202.03
2023-01-08T15:17:33.103Z,100188.19
2023-01-08T15:21:36.461Z,100186.31
2023-01-08T15:25:38.178Z,100196.94
2023-01-08T15:29:48.463Z,100188.91
2023-01-08T15:33:50.657Z,100185.72
2023-01-08T15:37:52.731Z,100193.50
2023-01-08T15:42:13.473Z,100186.75
2023-01-08T15:46:16.116Z,100174.75
2023-01-08T15:50:20.317Z,100194.94
2023-01-08T15:54:25.787Z,100198.56
2023-01-08T15:58:27.830Z,100187.50
2023-01-08T16:02:29.983Z,100185.38
2023-01-08T16:06:32.005Z,100183.81
2023-01-08T16:10:34.258Z,100178.34
2023-01-08T16:14:38.079Z,100157.03
2023-01-08T16:18:40.592Z,100145.78
2023-01-08T16:22:42.742Z,100146.03
2023-01-08T16:26:44.721Z,100135.38
2023-01-08T16:30:46.685Z,100140.38
2023-01-08T16:34:48.872Z,100131.19
2023-01-08T16:38:50.613Z,100131.94
2023-01-08T16:42:52.603Z,100130.25
2023-01-08T16:46:55.600Z,100125.31
2023-01-08T16:51:05.254Z,100103.44
2023-01-08T16:55:08.120Z,100100.53
2023-01-08T16:59:22.294Z,100131.56
2023-01-08T17:03:25.449Z,100138.47
2023-01-08T17:07:27.480Z,100117.81
2023-01-08T17:11:29.119Z,100117.81
2023-01-08T17:15:31.208Z,100139.81
2023-01-08T17:19:33.426Z,100113.59
2023-01-08T17:23:36.322Z,100119.50
2023-01-08T17:27:38.288Z,100097.88
2023-01-08T17:31:40.501Z,100104.03
2023-01-08T17:35:42.533Z,100094.91
2023-01-08T17:39:45.681Z,100084.00
2023-01-08T17:43:47.640Z,100086.75
2023-01-08T17:47:49.326Z,100070.91
2023-01-08T17:51:53.329Z,100083.84
2023-01-08T17:55:55.028Z,100087.16
2023-01-08T17:59:58.287Z,100081.19
2023-01-08T18:04:01.382Z,100087.06
2023-01-08T18:08:03.300Z,100081.31
2023-01-08T18:12:05.530Z,100082.03
2023-01-08T18:16:10.825Z,100056.19
2023-01-08T18:20:13.198Z,100031.47
2023-01-08T18:24:15.561Z,100032.59
2023-01-08T18:28:17.607Z,100031.38
2023-01-08T18:32:25.489Z,100041.81
2023-01-08T18:36:27.574Z,100046.59
2023-01-08T18:40:30.051Z,100041.22
2023-01-08T18:44:32.042Z,100029.00
2023-01-08T18:48:35.505Z,100049.34
2023-01-08T18:52:39.641Z,100051.41
2023-01-08T18:56:42.114Z,100057.25
2023-01-08T19:00:43.895Z,100064.38
2023-01-08T19:04:46.108Z,100054.75
2023-01-08T19:08:48.184Z,100044.25
2023-01-08T19:12:50.780Z,100034.47
2023-01-08T19:16:53.180Z,100048.78
2023-01-08T19:20:56.139Z,100032.78
2023-01-08T19:24:58.686Z,100034.72
2023-01-08T19:29:00.706Z,100021.94
2023-01-08T19:33:02.717Z,100027.13
2023-01-08T19:37:04.789Z,100023.41
2023-01-08T19:41:26.700Z,100027.13
2023-01-08T19:45:28.673Z,100034.59
2023-01-08T19:49:30.862Z,100044.13
2023-01-08T19:53:32.836Z,100046.47
2023-01-08T19:57:34.956Z,100046.69
2023-01-08T20:01:37.141Z,100053.03
2023-01-08T20:05:42.485Z,100044.59
2023-01-08T20:09:44.527Z,100047.41
2023-01-08T20:13:46.709Z,100040.41
2023-01-08T20:17:48.441Z,100041.47
2023-01-08T20:21:50.527Z,100046.34
2023-01-08T20:25:52.698Z,100040.25
2023-01-08T20:29:54.432Z,100041.03
2023-01-08T20:33:58.561Z,100037.06
2023-01-08T20:38:00.485Z,100026.97
2023-01-08T20:42:04.556Z,100006.06
2023-01-08T20:46:09.976Z,99977.94
2023-01-08T20:50:19.464Z,99956.41
2023-01-08T20:54:22.233Z,99941.75
2023-01-08T20:58:23.843Z,99931.19
2023-01-08T21:02:25.894Z,99910.66
2023-01-08T21:06:29.899Z,99907.13
2023-01-08T21:10:32.343Z,99905.69
2023-01-08T21:14:34.415Z,99902.69
2023-01-08T21:18:36.975Z,99896.81
2023-01-08T21:22:38.642Z,99884.25
2023-01-08T21:26:40.712Z,99875.53
2023-01-08T21:30:42.708Z,99879.88
2023-01-08T21:34:45.436Z,99867.91
2023-01-08T21:38:47.782Z,99871.91
2023-01-08T21:43:08.034Z,99864.41
2023-01-08T21:47:16.554Z,99858.59
2023-01-08T21:51:37.617Z,99850.94
2023-01-08T21:55:41.989Z,99840.78
2023-01-08T21:59:44.219Z,99842.38
2023-01-08T22:03:46.025Z,99837.16
2023-01-08T22:07:48.059Z,99842.03
2023-01-08T22:11:50.478Z,99837.66
2023-01-08T22:16:08.579Z,99832.63
2023-01-08T22:20:11.739Z,99829.56
2023-01-08T22:24:13.761Z,99833.00
2023-01-08T22:28:15.733Z,99830.41
2023-01-08T22:32:17.868Z,99823.75
2023-01-08T22:36:20.113Z,99824.88
2023-01-08T22:40:22.059Z,99813.56
2023-01-08T22:44:24.250Z,99813.44
2023-01-08T22:48:27.214Z,99822.91
2023-01-08T22:52:29.218Z,99815.31
2023-01-08T22:56:31.221Z,99795.84
2023-01-08T23:00:33.011Z,99785.59
2023-01-08T23:04:35.048Z,99801.56
2023-01-08T23:08:38.004Z,99788.91
2023-01-08T23:12:39.851Z,99778.38
2023-01-08T23:16:42.785Z,99765.44
2023-01-08T23:20:44.732Z,99743.56
2023-01-08T23:24:46.732Z,99745.44
2023-01-08T23:28:50.308Z,99736.09
2023-01-08T23:32:51.963Z,99721.84
2023-01-08T23:36:53.978Z,99715.69
2023-01-08T23:40:56.654Z,99714.78
2023-01-08T23:44:58.387Z,99730.31
2023-01-08T23:49:00.716Z,99709.41
2023-01-08T23:53:02.915Z,99699.97
2023-01-08T23:57:06.548Z,99692.38
